Time;durP1;ratioP1;P1;durP2;ratioP2;P2;SDS_P1;SDS_P2;PMS_P1;PMS_P2;Temp;Humidity;BMP_temperature;BMP_pressure;BME280_temperature;BME280_humidity;BME280_pressure;Samples;Min_cycle;Max_cycle;Signal;HPM_P1;HPM_P2
2022/04/05 00:02:11;;;;;;;;;;;;;;;15.06;62.94;99881.59;4415875;32;19952;-68
2022/04/05 00:04:38;;;;;;;;;;;;;;;15.30;61.89;99892.81;4421437;32;20014;-68
2022/04/05 00:07:03;;;;;;;;;;;;;;;15.45;61.64;99890.75;4405406;32;19976;-69
2022/04/05 00:09:29;;;;;;;;;;;;;;;15.33;62.06;99886.16;4418909;32;19950;-69
2022/04/05 00:11:54;;;;;;;;;;;;;;;15.22;62.30;99895.25;4421015;32;19964;-69
2022/04/05 00:14:20;;;;;;;;;;;;;;;15.65;60.92;99896.50;4420975;32;19969;-69
2022/04/05 00:16:45;;;;;;;;;;;;;;;15.31;61.87;99900.06;4419323;32;19999;-69
2022/04/05 00:19:11;;;;;;;;;;;;;;;15.47;61.66;99891.06;4419800;32;19993;-70
2022/04/05 00:21:37;;;;;;;;;;;;;;;14.67;65.06;99891.44;4419185;32;19997;-69
2022/04/05 00:24:02;;;;;;;;;;;;;;;14.95;62.85;99887.09;4413639;32;20146;-69
2022/04/05 00:26:28;;;;;;;;;;;;;;;14.05;65.78;99887.88;4418260;32;19957;-69
2022/04/05 00:28:53;;;;;;;;;;;;;;;15.37;61.90;99896.06;4416233;32;19997;-69
2022/04/05 00:31:19;;;;;;;;;;;;;;;15.22;62.09;99897.34;4421216;32;19962;-69
2022/04/05 00:33:45;;;;;;;;;;;;;;;13.95;65.77;99887.19;4421638;32;20330;-69
2022/04/05 00:36:10;;;;;;;;;;;;;;;13.91;66.19;99886.59;4419286;32;20311;-67
2022/04/05 00:38:35;;;;;;;;;;;;;;;15.45;61.35;99882.25;4418518;32;20355;-69
2022/04/05 00:41:01;;;;;;;;;;;;;;;15.58;61.94;99882.69;4416400;32;19957;-69
2022/04/05 00:43:27;;;;;;;;;;;;;;;15.79;60.29;99879.41;4414581;32;20393;-69
2022/04/05 00:45:54;;;;;;;;;;;;;;;16.01;59.74;99881.75;4420487;32;19946;-69
2022/04/05 00:48:39;;;;;;;;;;;;;;;14.38;64.19;99868.00;4416300;32;20139;-69
2022/04/05 00:51:05;;;;;;;;;;;;;;;13.84;66.83;99861.47;4418054;32;19965;-69
2022/04/05 00:53:32;;;;;;;;;;;;;;;13.80;67.00;99865.75;4417076;32;19971;-69
2022/04/05 00:55:59;;;;;;;;;;;;;;;13.71;67.42;99882.78;4415975;32;20361;-69
2022/04/05 00:58:26;;;;;;;;;;;;;;;15.32;62.18;99867.59;4417153;32;19989;-69
2022/04/05 01:00:52;;;;;;;;;;;;;;;13.65;66.58;99874.19;4417778;32;20016;-69
2022/04/05 01:03:18;;;;;;;;;;;;;;;15.57;60.19;99870.59;4417202;32;19965;-69
2022/04/05 01:05:46;;;;;;;;;;;;;;;15.57;60.54;99878.31;4422249;32;20178;-69
2022/04/05 01:08:14;;;;;;;;;;;;;;;15.59;60.77;99847.41;4420787;32;20322;-69
2022/04/05 01:10:41;;;;;;;;;;;;;;;14.34;64.26;99850.41;4405891;32;20369;-69
2022/04/05 01:13:08;;;;;;;;;;;;;;;13.39;68.76;99842.00;4418907;32;20017;-69
2022/04/05 01:15:33;;;;;;;;;;;;;;;13.51;68.65;99857.16;4417141;32;20343;-69
2022/04/05 01:18:00;;;;;;;;;;;;;;;14.13;67.36;99851.50;4418214;32;20015;-69
2022/04/05 01:20:25;;;;;;;;;;;;;;;15.35;61.49;99843.94;4419287;32;19996;-69
2022/04/05 01:22:54;;;;;;;;;;;;;;;15.38;61.27;99860.78;4414256;32;20398;-69
2022/04/05 01:25:19;;;;;;;;;;;;;;;15.60;60.48;99851.81;4418356;32;20336;-69
2022/04/05 01:27:45;;;;;;;;;;;;;;;15.69;60.01;99846.00;4417867;32;20027;-69
2022/04/05 01:30:11;;;;;;;;;;;;;;;15.87;59.17;99851.41;4417075;32;19991;-69
2022/04/05 01:32:37;;;;;;;;;;;;;;;16.01;58.85;99832.75;4419978;32;20002;-69
2022/04/05 01:35:03;;;;;;;;;;;;;;;15.79;59.45;99839.69;4416359;32;19976;-69
2022/04/05 01:37:30;;;;;;;;;;;;;;;15.43;61.09;99836.59;4416590;32;20521;-69
2022/04/05 01:39:56;;;;;;;;;;;;;;;15.38;61.72;99843.78;4416190;32;20030;-69
2022/04/05 01:42:22;;;;;;;;;;;;;;;14.02;66.17;99830.22;4418565;32;19957;-69
2022/04/05 01:44:47;;;;;;;;;;;;;;;14.14;67.00;99831.22;4418846;32;19964;-69
2022/04/05 01:47:14;;;;;;;;;;;;;;;13.95;66.93;99841.94;4418177;32;20032;-69
2022/04/05 01:49:41;;;;;;;;;;;;;;;15.61;60.60;99844.84;4416129;32;20033;-69
2022/04/05 01:52:07;;;;;;;;;;;;;;;15.24;61.59;99827.53;4401731;32;19962;-69
2022/04/05 01:54:33;;;;;;;;;;;;;;;13.87;66.22;99829.41;4416905;32;19953;-69
2022/04/05 01:56:58;;;;;;;;;;;;;;;13.85;66.35;99825.50;4421132;32;20002;-69
2022/04/05 01:59:25;;;;;;;;;;;;;;;13.92;65.94;99822.31;4419698;32;20316;-69
2022/04/05 02:01:51;;;;;;;;;;;;;;;13.84;66.19;99818.28;4416531;32;19954;-69
2022/04/05 02:04:16;;;;;;;;;;;;;;;13.67;66.69;99828.47;4417232;32;19968;-69
2022/04/05 02:06:43;;;;;;;;;;;;;;;14.63;63.57;99828.59;4413727;32;20272;-69
2022/04/05 02:09:09;;;;;;;;;;;;;;;15.23;61.66;99825.97;4418165;32;20030;-69
2022/04/05 02:11:35;;;;;;;;;;;;;;;13.56;67.45;99826.16;4416333;32;20402;-69
2022/04/05 02:14:01;;;;;;;;;;;;;;;13.79;66.63;99836.72;4417505;32;19972;-69
2022/04/05 02:16:26;;;;;;;;;;;;;;;13.51;67.96;99843.81;4421119;32;20482;-69
2022/04/05 02:18:52;;;;;;;;;;;;;;;13.48;68.14;99843.97;4417173;32;20013;-69
2022/04/05 02:21:18;;;;;;;;;;;;;;;14.60;65.19;99843.72;4414693;32;19956;-69
2022/04/05 02:23:44;;;;;;;;;;;;;;;13.68;67.54;99836.47;4418905;32;20038;-69
2022/04/05 02:26:11;;;;;;;;;;;;;;;13.61;68.33;99853.78;4415775;32;20000;-69
2022/04/05 02:28:36;;;;;;;;;;;;;;;13.80;67.14;99840.31;4419585;32;19969;-69
2022/04/05 02:31:02;;;;;;;;;;;;;;;14.95;64.01;99832.47;4416299;32;20023;-69
2022/04/05 02:33:28;;;;;;;;;;;;;;;14.99;63.67;99838.72;4417427;32;19965;-69
2022/04/05 02:35:53;;;;;;;;;;;;;;;15.02;63.69;99849.06;4415103;32;20002;-69
2022/04/05 02:38:19;;;;;;;;;;;;;;;14.87;64.18;99839.81;4414933;32;20021;-69
2022/04/05 02:40:44;;;;;;;;;;;;;;;15.01;63.91;99850.34;4415381;32;19954;-69
2022/04/05 02:43:10;;;;;;;;;;;;;;;14.86;64.19;99841.09;4415687;32;19965;-69
2022/04/05 02:45:36;;;;;;;;;;;;;;;15.14;63.28;99850.81;4415290;32;19985;-69
2022/04/05 02:48:02;;;;;;;;;;;;;;;14.80;64.33;99855.16;4418097;32;19954;-69
2022/04/05 02:50:29;;;;;;;;;;;;;;;13.74;67.16;99843.00;4417686;32;19972;-69
2022/04/05 02:52:54;;;;;;;;;;;;;;;14.89;64.65;99848.59;4413538;32;19973;-69
2022/04/05 02:55:20;;;;;;;;;;;;;;;14.74;64.47;99853.47;4419150;32;19971;-69
2022/04/05 02:57:46;;;;;;;;;;;;;;;14.89;64.29;99843.72;4400731;32;20004;-69
2022/04/05 03:00:13;;;;;;;;;;;;;;;14.44;65.19;99843.41;4401948;32;19965;-69
2022/04/05 03:02:39;;;;;;;;;;;;;;;14.51;65.37;99840.22;4401901;32;19960;-69
2022/04/05 03:05:06;;;;;;;;;;;;;;;13.31;69.21;99835.13;4402779;32;19965;-69
2022/04/05 03:07:37;;;;;;;;;;;;;;;13.16;69.97;99845.53;4400679;32;19989;-69
2022/04/05 03:10:07;;;;;;;;;;;;;;;14.31;66.10;99843.69;4401246;32;20918;-69
2022/04/05 03:12:36;;;;;;;;;;;;;;;13.18;69.82;99845.06;4404690;32;20004;-69
2022/04/05 03:15:02;;;;;;;;;;;;;;;13.11;70.52;99846.22;4403032;32;20005;-69
2022/04/05 03:17:28;;;;;;;;;;;;;;;13.10;70.37;99843.88;4399674;32;19997;-69
2022/04/05 03:19:53;;;;;;;;;;;;;;;13.28;69.44;99838.91;4400804;32;19961;-69
2022/04/05 03:22:19;;;;;;;;;;;;;;;14.30;66.81;99827.19;4403023;32;19954;-69
2022/04/05 03:24:44;;;;;;;;;;;;;;;14.67;64.78;99842.56;4405091;32;19953;-69
2022/04/05 03:27:10;;;;;;;;;;;;;;;14.97;63.49;99833.53;4399673;32;19989;-69
2022/04/05 03:29:35;;;;;;;;;;;;;;;13.69;67.10;99829.53;4402891;32;20370;-69
2022/04/05 03:32:01;;;;;;;;;;;;;;;14.89;63.70;99835.22;4404958;32;20025;-69
2022/04/05 03:34:28;;;;;;;;;;;;;;;14.93;63.71;99835.00;4399298;32;20225;-69
2022/04/05 03:36:55;;;;;;;;;;;;;;;14.82;64.48;99823.50;4400771;32;19968;-69
2022/04/05 03:39:20;;;;;;;;;;;;;;;14.86;64.44;99826.91;4397834;32;19988;-69
2022/04/05 03:41:46;;;;;;;;;;;;;;;13.84;67.24;99816.22;4407387;32;20032;-69
2022/04/05 03:44:11;;;;;;;;;;;;;;;14.25;68.12;99819.38;4404077;32;19977;-69
2022/04/05 03:46:37;;;;;;;;;;;;;;;13.20;70.16;99819.97;4404797;32;20387;-69
2022/04/05 03:49:03;;;;;;;;;;;;;;;14.61;66.19;99813.34;4405862;32;19972;-69
2022/04/05 03:51:29;;;;;;;;;;;;;;;14.95;64.56;99809.81;4404285;32;20320;-69
2022/04/05 03:53:55;;;;;;;;;;;;;;;13.27;70.07;99803.44;4406699;32;19989;-69
2022/04/05 03:56:21;;;;;;;;;;;;;;;12.95;72.41;99809.06;4404779;32;19961;-69
2022/04/05 03:58:47;;;;;;;;;;;;;;;12.93;72.41;99812.38;4412731;32;20355;-68
2022/04/05 04:01:12;;;;;;;;;;;;;;;14.51;66.52;99807.00;4416972;32;20440;-68
2022/04/05 04:03:38;;;;;;;;;;;;;;;12.94;72.28;99799.81;4422574;32;20387;-68
2022/04/05 04:06:03;;;;;;;;;;;;;;;12.99;72.60;99804.84;4415681;32;19968;-68
2022/04/05 04:08:29;;;;;;;;;;;;;;;12.98;73.05;99797.56;4421051;32;19962;-68
2022/04/05 04:10:57;;;;;;;;;;;;;;;13.00;72.95;99803.56;4419281;32;20000;-68
2022/04/05 04:13:28;;;;;;;;;;;;;;;13.02;72.78;99800.25;4418754;32;19961;-69
2022/04/05 04:15:55;;;;;;;;;;;;;;;13.03;72.31;99796.97;4418067;32;19945;-69
2022/04/05 04:18:21;;;;;;;;;;;;;;;12.98;73.02;99800.41;4417711;32;20003;-68
2022/04/05 04:20:48;;;;;;;;;;;;;;;14.68;67.04;99807.28;4416979;32;19965;-68
2022/04/05 04:23:15;;;;;;;;;;;;;;;14.01;69.77;99797.56;4418582;32;20542;-68
2022/04/05 04:25:40;;;;;;;;;;;;;;;14.70;67.17;99804.75;4420337;32;20290;-68
2022/04/05 04:28:07;;;;;;;;;;;;;;;14.59;67.44;99801.72;4419318;32;19989;-68
2022/04/05 04:30:33;;;;;;;;;;;;;;;15.05;65.33;99802.75;4420730;32;19965;-69
2022/04/05 04:32:59;;;;;;;;;;;;;;;14.69;65.80;99803.19;4418721;32;20240;-69
2022/04/05 04:35:25;;;;;;;;;;;;;;;14.35;67.30;99795.37;4418941;32;20039;-68
2022/04/05 04:37:51;;;;;;;;;;;;;;;14.80;65.90;99798.50;4417469;32;19957;-68
2022/04/05 04:40:18;;;;;;;;;;;;;;;14.72;66.58;99790.88;4403319;32;19983;-68
2022/04/05 04:42:44;;;;;;;;;;;;;;;13.11;71.59;99791.75;4418937;32;20005;-69
2022/04/05 04:45:10;;;;;;;;;;;;;;;13.12;71.69;99779.97;4417608;32;19958;-68
2022/04/05 04:47:36;;;;;;;;;;;;;;;13.08;71.98;99781.41;4417176;32;20036;-68
2022/04/05 04:50:02;;;;;;;;;;;;;;;14.47;67.02;99780.16;4413929;32;19968;-68
2022/04/05 04:52:28;;;;;;;;;;;;;;;13.08;70.88;99784.22;4415554;32;20425;-69
2022/04/05 04:54:53;;;;;;;;;;;;;;;14.42;66.97;99780.84;4422306;32;19966;-68
2022/04/05 04:57:21;;;;;;;;;;;;;;;15.08;64.11;99776.28;4413407;32;20395;-69
2022/04/05 04:59:47;;;;;;;;;;;;;;;14.14;67.86;99776.72;4421437;32;20427;-68
2022/04/05 05:02:13;;;;;;;;;;;;;;;14.78;64.87;99786.09;4420766;32;20249;-69
2022/04/05 05:04:39;;;;;;;;;;;;;;;14.55;64.67;99792.66;4414174;32;19997;-69
2022/04/05 05:07:05;;;;;;;;;;;;;;;14.40;65.50;99786.22;4415649;32;20373;-69
2022/04/05 05:09:31;;;;;;;;;;;;;;;13.27;68.68;99782.88;4420267;32;20328;-69
2022/04/05 05:11:56;;;;;;;;;;;;;;;13.62;67.31;99783.88;4417811;32;19980;-69
2022/04/05 05:14:21;;;;;;;;;;;;;;;12.98;69.89;99782.69;4420699;32;20039;-69
2022/04/05 05:16:48;;;;;;;;;;;;;;;12.91;70.68;99777.38;4416424;32;19949;-69
2022/04/05 05:19:13;;;;;;;;;;;;;;;12.83;70.89;99771.31;4422332;32;19998;-69
2022/04/05 05:21:39;;;;;;;;;;;;;;;13.04;69.73;99764.63;4415506;32;19953;-69
2022/04/05 05:24:05;;;;;;;;;;;;;;;12.88;70.45;99765.00;4418973;32;20048;-69
2022/04/05 05:26:31;;;;;;;;;;;;;;;12.84;70.57;99750.28;4417411;32;20389;-69
2022/04/05 05:28:58;;;;;;;;;;;;;;;12.96;70.10;99760.56;4415738;32;19976;-69
2022/04/05 05:31:23;;;;;;;;;;;;;;;12.89;70.39;99751.66;4414824;32;19954;-69
2022/04/05 05:33:49;;;;;;;;;;;;;;;12.68;70.79;99767.59;4419481;32;19960;-69
2022/04/05 05:36:14;;;;;;;;;;;;;;;12.83;70.88;99759.22;4416493;32;19953;-69
2022/04/05 05:38:40;;;;;;;;;;;;;;;14.40;65.54;99763.56;4415559;32;19941;-69
2022/04/05 05:41:05;;;;;;;;;;;;;;;14.63;64.30;99757.03;4414374;32;20217;-69
2022/04/05 05:43:31;;;;;;;;;;;;;;;14.32;65.49;99760.34;4414785;32;20321;-69
2022/04/05 05:45:58;;;;;;;;;;;;;;;14.58;63.93;99761.34;4417609;32;19949;-69
2022/04/05 05:48:24;;;;;;;;;;;;;;;14.56;64.30;99768.72;4417146;32;19967;-69
2022/04/05 05:50:51;;;;;;;;;;;;;;;14.14;65.87;99779.53;4417341;32;19986;-69
2022/04/05 05:53:16;;;;;;;;;;;;;;;14.39;65.08;99779.00;4417213;32;19988;-69
2022/04/05 05:55:42;;;;;;;;;;;;;;;14.11;66.14;99780.50;4414778;32;19972;-69
2022/04/05 05:58:08;;;;;;;;;;;;;;;13.11;69.89;99775.59;4417048;32;19985;-69
2022/04/05 06:00:34;;;;;;;;;;;;;;;12.88;71.10;99753.69;4407325;32;19993;-69
2022/04/05 06:03:02;;;;;;;;;;;;;;;13.80;68.40;99758.28;4419507;32;20274;-69
2022/04/05 06:05:27;;;;;;;;;;;;;;;12.96;71.00;99762.59;4416906;32;19961;-69
2022/04/05 06:07:53;;;;;;;;;;;;;;;12.80;72.17;99763.78;4417317;32;19977;-69
2022/04/05 06:10:20;;;;;;;;;;;;;;;13.60;69.79;99775.88;4418213;32;19983;-69
2022/04/05 06:12:48;;;;;;;;;;;;;;;12.99;70.26;99767.31;4418627;32;20033;-69
2022/04/05 06:15:14;;;;;;;;;;;;;;;13.91;68.61;99761.34;4416649;32;20570;-69
2022/04/05 06:17:41;;;;;;;;;;;;;;;13.84;68.30;99767.41;4419366;32;19973;-69
2022/04/05 06:20:08;;;;;;;;;;;;;;;12.66;72.06;99761.66;4419898;32;19965;-69
2022/04/05 06:25:19;;;;;;;;;;;;;;;12.93;71.30;99778.47;3951160;32;15831318;-70
2022/04/05 06:27:45;;;;;;;;;;;;;;;12.93;71.30;99778.47;4432564;32;19957;-69
2022/04/05 06:30:11;;;;;;;;;;;;;;;12.60;71.97;99772.00;4435526;32;19945;-69
2022/04/05 06:32:37;;;;;;;;;;;;;;;12.74;71.70;99777.00;4428382;32;19958;-69
2022/04/05 06:35:03;;;;;;;;;;;;;;;12.88;71.45;99773.47;4431567;32;20313;-69
2022/04/05 06:37:28;;;;;;;;;;;;;;;13.82;68.26;99772.75;4432645;32;20012;-69
2022/04/05 06:39:54;;;;;;;;;;;;;;;12.98;70.62;99765.75;4433068;32;20295;-69
2022/04/05 06:42:20;;;;;;;;;;;;;;;13.09;70.30;99777.31;4432527;32;20336;-68
2022/04/05 06:44:45;;;;;;;;;;;;;;;13.21;69.63;99768.62;4432432;32;19972;-69
2022/04/05 06:47:11;;;;;;;;;;;;;;;13.20;69.23;99769.88;4432781;32;20016;-69
2022/04/05 06:49:37;;;;;;;;;;;;;;;13.31;68.49;99755.22;4434818;32;20369;-69
2022/04/05 06:52:03;;;;;;;;;;;;;;;13.17;68.66;99759.56;4432628;32;20286;-69
2022/04/05 06:54:30;;;;;;;;;;;;;;;13.50;67.91;99748.94;4434255;32;20008;-69
2022/04/05 06:56:55;;;;;;;;;;;;;;;13.46;67.19;99754.00;4432819;32;19954;-69
2022/04/05 06:59:21;;;;;;;;;;;;;;;13.70;65.77;99763.25;4435823;32;20003;-69
2022/04/05 07:01:46;;;;;;;;;;;;;;;15.07;61.54;99766.97;4434044;32;19961;-69
2022/04/05 07:04:12;;;;;;;;;;;;;;;15.22;60.92;99752.78;4438307;32;20016;-69
2022/04/05 07:06:38;;;;;;;;;;;;;;;15.04;61.02;99753.03;4433889;32;19989;-69
2022/04/05 07:09:05;;;;;;;;;;;;;;;15.09;60.73;99758.78;4434281;32;20000;-69
2022/04/05 07:11:31;;;;;;;;;;;;;;;14.10;63.93;99774.06;4432813;32;20020;-69
2022/04/05 07:13:57;;;;;;;;;;;;;;;13.54;65.98;99754.44;4431974;32;19976;-69
2022/04/05 07:16:23;;;;;;;;;;;;;;;13.30;67.09;99734.66;4434204;32;19961;-69
2022/04/05 07:18:49;;;;;;;;;;;;;;;14.91;61.87;99741.25;4434068;32;19961;-69
2022/04/05 07:21:15;;;;;;;;;;;;;;;15.08;61.56;99756.44;4433745;32;19997;-69
2022/04/05 07:23:44;;;;;;;;;;;;;;;15.17;60.72;99764.81;4431157;32;20036;-69
2022/04/05 07:26:10;;;;;;;;;;;;;;;15.06;60.71;99745.59;4429313;32;20348;-69
2022/04/05 07:28:36;;;;;;;;;;;;;;;15.19;60.91;99756.59;4429150;32;20366;-69
2022/04/05 07:31:02;;;;;;;;;;;;;;;14.90;61.46;99754.63;4433913;32;20189;-69
2022/04/05 07:33:27;;;;;;;;;;;;;;;14.86;61.74;99750.44;4429792;32;20006;-69
2022/04/05 07:35:53;;;;;;;;;;;;;;;14.94;61.56;99763.69;4412814;32;20368;-69
2022/04/05 07:38:19;;;;;;;;;;;;;;;15.12;61.22;99751.34;4423343;32;20303;-69
2022/04/05 07:40:48;;;;;;;;;;;;;;;15.14;60.99;99728.97;4422605;32;20736;-69
2022/04/05 07:43:16;;;;;;;;;;;;;;;15.19;60.33;99748.09;4419215;32;20031;-69
2022/04/05 07:45:42;;;;;;;;;;;;;;;15.00;61.06;99758.91;4421221;32;20491;-69
2022/04/05 07:48:08;;;;;;;;;;;;;;;15.23;60.18;99740.97;4421767;32;19987;-69
2022/04/05 07:50:33;;;;;;;;;;;;;;;14.33;63.39;99747.75;4422482;32;20007;-69
2022/04/05 07:53:00;;;;;;;;;;;;;;;13.72;64.82;99743.75;4419861;32;19981;-69
2022/04/05 07:55:27;;;;;;;;;;;;;;;13.17;67.33;99747.47;4419907;32;20380;-69
2022/04/05 07:57:53;;;;;;;;;;;;;;;12.94;68.51;99734.06;4422237;32;19961;-69
2022/04/05 08:00:19;;;;;;;;;;;;;;;12.94;68.99;99740.50;4426257;32;19956;-69
2022/04/05 08:02:44;;;;;;;;;;;;;;;13.02;69.01;99732.47;4425162;32;20376;-69
2022/04/05 08:05:10;;;;;;;;;;;;;;;13.40;67.89;99724.84;4422057;32;19995;-69
2022/04/05 08:07:36;;;;;;;;;;;;;;;13.34;67.51;99740.91;4424180;32;19961;-69
2022/04/05 08:10:01;;;;;;;;;;;;;;;13.28;66.84;99730.75;4421579;32;20422;-69
2022/04/05 08:12:34;;;;;;;;;;;;;;;13.24;67.03;99736.59;4422402;32;20327;-70
2022/04/05 08:14:59;;;;;;;;;;;;;;;13.21;67.21;99743.19;4420518;32;20389;-69
2022/04/05 08:17:25;;;;;;;;;;;;;;;14.69;61.33;99752.22;4420616;32;19965;-69
2022/04/05 08:19:51;;;;;;;;;;;;;;;13.34;65.08;99749.37;4422700;32;20545;-69
2022/04/05 08:22:17;;;;;;;;;;;;;;;13.35;65.45;99736.81;4419616;32;20040;-70
2022/04/05 08:24:42;;;;;;;;;;;;;;;13.67;64.41;99749.28;4420689;32;20345;-69
2022/04/05 08:27:08;;;;;;;;;;;;;;;14.85;60.40;99755.31;4420709;32;19937;-69
2022/04/05 08:29:39;;;;;;;;;;;;;;;15.24;59.68;99753.84;4420496;32;19964;-69
2022/04/05 08:32:05;;;;;;;;;;;;;;;14.12;61.45;99759.44;4417611;32;19993;-69
2022/04/05 08:34:31;;;;;;;;;;;;;;;15.84;56.25;99762.38;4420660;32;19993;-69
2022/04/05 08:36:57;;;;;;;;;;;;;;;16.17;55.79;99752.69;4418915;32;19968;-69
2022/04/05 08:39:23;;;;;;;;;;;;;;;16.41;54.79;99751.09;4418254;32;19953;-69
2022/04/05 08:41:50;;;;;;;;;;;;;;;15.53;56.91;99755.81;4421605;32;19961;-69
2022/04/05 08:44:18;;;;;;;;;;;;;;;16.46;54.34;99773.13;4420826;32;19942;-69
2022/04/05 08:46:44;;;;;;;;;;;;;;;15.66;56.01;99756.22;4422270;32;20028;-69
2022/04/05 08:49:11;;;;;;;;;;;;;;;15.05;58.13;99768.75;4420447;32;20421;-70
2022/04/05 08:51:37;;;;;;;;;;;;;;;15.00;58.87;99767.41;4419263;32;20051;-69
2022/04/05 08:54:03;;;;;;;;;;;;;;;16.60;54.38;99785.66;4420620;32;20003;-69
2022/04/05 08:56:30;;;;;;;;;;;;;;;15.92;55.47;99782.59;4417195;32;20351;-69
2022/04/05 08:58:56;;;;;;;;;;;;;;;16.33;54.35;99784.09;4416760;32;20005;-69
2022/04/05 09:01:22;;;;;;;;;;;;;;;16.12;54.54;99776.91;4419132;32;19995;-69
2022/04/05 09:03:47;;;;;;;;;;;;;;;15.03;57.75;99782.66;4423326;32;19992;-69
2022/04/05 09:06:29;;;;;;;;;;;;;;;14.52;58.96;99774.59;4416817;32;20012;-69
2022/04/05 09:11:35;;;;;;;;;;;;;;;15.83;56.26;99794.87;3967890;31;15718361;-70
2022/04/05 09:14:01;;;;;;;;;;;;;;;15.83;56.26;99794.87;4441671;32;19952;-70
2022/04/05 09:16:31;;;;;;;;;;;;;;;14.79;58.20;99794.09;4435954;32;19957;-70
2022/04/05 09:18:56;;;;;;;;;;;;;;;15.25;57.15;99782.97;4445493;32;20375;-70
2022/04/05 09:21:22;;;;;;;;;;;;;;;15.24;56.69;99798.41;4445006;32;19957;-70
2022/04/05 09:23:52;;;;;;;;;;;;;;;15.44;56.71;99789.97;4445025;32;20378;-70
2022/04/05 09:26:18;;;;;;;;;;;;;;;15.17;56.71;99793.16;4442995;32;19996;-70
2022/04/05 09:28:46;;;;;;;;;;;;;;;15.03;57.42;99791.16;4442365;32;19961;-70
2022/04/05 09:31:13;;;;;;;;;;;;;;;15.63;55.72;99805.44;4443653;32;20012;-70
2022/04/05 09:33:40;;;;;;;;;;;;;;;15.95;54.78;99796.56;4438640;32;20525;-70
2022/04/05 09:36:10;;;;;;;;;;;;;;;15.96;54.19;99803.03;4443076;32;19995;-70
2022/04/05 09:38:37;;;;;;;;;;;;;;;16.18;53.82;99797.59;4444786;32;19964;-70
2022/04/05 09:43:53;;;;;;;;;;;;;;;15.05;57.39;99806.38;3952661;32;15723598;-70
2022/04/05 09:46:19;;;;;;;;;;;;;;;15.05;57.39;99806.38;4433637;32;20160;-70
2022/04/05 09:48:46;;;;;;;;;;;;;;;15.56;55.55;99805.88;4435141;32;19978;-70
2022/04/05 09:51:14;;;;;;;;;;;;;;;14.62;58.19;99809.25;4433877;32;19982;-70
2022/04/05 09:53:45;;;;;;;;;;;;;;;14.87;58.21;99808.63;4429448;32;19968;-70
2022/04/05 09:56:13;;;;;;;;;;;;;;;15.17;56.54;99808.13;4436825;32;19949;-70
2022/04/05 09:58:43;;;;;;;;;;;;;;;15.08;56.18;99808.22;4434102;32;20413;-70
2022/04/05 10:01:11;;;;;;;;;;;;;;;14.93;57.03;99812.34;4433062;32;20329;-70
2022/04/05 10:03:39;;;;;;;;;;;;;;;14.50;58.24;99816.78;4433594;32;19983;-70
2022/04/05 10:06:05;;;;;;;;;;;;;;;14.71;58.33;99811.97;4436412;32;20387;-70
2022/04/05 10:08:31;;;;;;;;;;;;;;;14.99;57.23;99811.19;4431370;32;19953;-70
2022/04/05 10:10:57;;;;;;;;;;;;;;;15.02;56.14;99806.56;4433413;32;20444;-70
2022/04/05 10:13:22;;;;;;;;;;;;;;;15.02;55.87;99804.53;4435130;32;20228;-70
2022/04/05 10:15:49;;;;;;;;;;;;;;;14.07;58.88;99821.09;4435760;32;20021;-70
2022/04/05 10:18:17;;;;;;;;;;;;;;;14.55;57.77;99798.31;4434297;32;19976;-70
2022/04/05 10:20:42;;;;;;;;;;;;;;;14.70;57.64;99796.28;4433207;32;19964;-70
2022/04/05 10:23:08;;;;;;;;;;;;;;;14.51;57.08;99800.56;4433537;32;20408;-70
2022/04/05 10:25:34;;;;;;;;;;;;;;;14.45;57.96;99799.69;4435310;32;19989;-70
2022/04/05 10:28:00;;;;;;;;;;;;;;;14.50;57.18;99802.63;4433771;32;20306;-70
2022/04/05 10:30:30;;;;;;;;;;;;;;;14.27;58.01;99794.22;4435307;32;20274;-70
2022/04/05 10:33:07;;;;;;;;;;;;;;;13.98;58.93;99797.75;4434650;32;20391;-70
2022/04/05 10:35:38;;;;;;;;;;;;;;;14.50;57.90;99794.13;4433763;32;19996;-70
2022/04/05 10:38:12;;;;;;;;;;;;;;;14.18;57.80;99788.59;4435991;32;19994;-69
2022/04/05 10:40:37;;;;;;;;;;;;;;;14.23;57.66;99788.72;4435268;32;19992;-70
2022/04/05 10:43:19;;;;;;;;;;;;;;;14.12;58.31;99782.06;4432979;32;19972;-70
2022/04/05 10:45:45;;;;;;;;;;;;;;;14.38;57.57;99777.41;4435779;32;20379;-70
2022/04/05 10:54:17;;;;;;;;;;;;;;;14.41;56.63;99777.22;3953823;32;15723289;-70
2022/04/05 10:56:29;;;;;;;;;;;;;;;14.41;56.63;99777.22;4431116;32;19961;-70
2022/04/05 11:01:43;;;;;;;;;;;;;;;16.81;50.61;99775.78;3953840;32;15727596;-70
2022/04/05 11:12:30;;;;;;;;;;;;;;;16.04;51.06;99758.72;3969929;31;15718999;-70
2022/04/05 11:14:59;;;;;;;;;;;;;;;15.74;51.48;99757.37;4435590;32;19994;-70
2022/04/05 11:17:26;;;;;;;;;;;;;;;15.55;51.92;99756.87;4440566;32;20327;-69
2022/04/05 11:19:52;;;;;;;;;;;;;;;15.58;52.64;99769.25;4439528;32;20544;-70
2022/04/05 11:25:03;;;;;;;;;;;;;;;15.59;52.13;99768.78;3957357;32;15727500;-69
2022/04/05 11:27:30;;;;;;;;;;;;;;;15.59;52.13;99768.78;4443669;32;19986;-69
2022/04/05 11:30:17;;;;;;;;;;;;;;;15.15;53.16;99756.00;4438741;32;20033;-69
2022/04/05 11:33:03;;;;;;;;;;;;;;;14.99;53.29;99762.22;4441127;32;19973;-69
2022/04/05 11:35:33;;;;;;;;;;;;;;;15.23;53.02;99760.78;4434123;32;20284;-69
2022/04/05 11:37:59;;;;;;;;;;;;;;;15.09;52.87;99774.97;4436259;32;20007;-69
2022/04/05 11:40:25;;;;;;;;;;;;;;;15.63;52.03;99760.06;4438743;32;19957;-69
2022/04/05 11:42:52;;;;;;;;;;;;;;;14.79;54.01;99770.69;4436418;32;19969;-69
2022/04/05 11:45:17;;;;;;;;;;;;;;;15.43;52.73;99775.00;4436778;32;19976;-69
2022/04/05 11:47:51;;;;;;;;;;;;;;;15.24;53.84;99764.37;4438211;32;20114;-69
2022/04/05 11:50:18;;;;;;;;;;;;;;;14.51;54.96;99769.44;4435493;32;19987;-69
2022/04/05 11:52:43;;;;;;;;;;;;;;;14.17;56.04;99755.94;4437658;32;20417;-69
2022/04/05 11:58:02;;;;;;;;;;;;;;;14.15;56.22;99747.13;4436404;32;20382;-69
2022/04/05 12:00:28;;;;;;;;;;;;;;;14.16;56.31;99766.47;4437169;32;19965;-69
2022/04/05 12:03:10;;;;;;;;;;;;;;;14.19;56.01;99730.75;4437174;32;20044;-69
2022/04/05 12:05:44;;;;;;;;;;;;;;;14.34;55.77;99748.53;4437603;32;19984;-69
2022/04/05 12:08:10;;;;;;;;;;;;;;;14.24;55.47;99744.25;4439039;32;20436;-69
2022/04/05 12:10:35;;;;;;;;;;;;;;;14.36;55.14;99726.97;4437077;32;20381;-69
2022/04/05 12:13:01;;;;;;;;;;;;;;;14.38;55.08;99729.31;4436214;32;19993;-69
2022/04/05 12:15:27;;;;;;;;;;;;;;;14.33;55.56;99738.50;4438188;32;19986;-69
2022/04/05 12:18:13;;;;;;;;;;;;;;;14.25;55.03;99738.09;4437290;32;20032;-69
2022/04/05 12:20:38;;;;;;;;;;;;;;;14.37;54.94;99727.75;4437176;32;20158;-69
2022/04/05 12:23:17;;;;;;;;;;;;;;;14.51;54.17;99721.31;4439519;32;19992;-69
2022/04/05 12:26:00;;;;;;;;;;;;;;;14.67;53.91;99724.38;4437311;32;20037;-69
2022/04/05 12:28:25;;;;;;;;;;;;;;;15.14;52.59;99714.78;4430063;32;19971;-69
2022/04/05 12:30:51;;;;;;;;;;;;;;;15.03;51.88;99717.47;4438244;32;19957;-69
2022/04/05 12:33:24;;;;;;;;;;;;;;;15.19;51.76;99709.19;4431742;32;19953;-69
2022/04/05 12:35:50;;;;;;;;;;;;;;;15.09;51.54;99709.81;4427980;32;19965;-69
2022/04/05 12:38:16;;;;;;;;;;;;;;;14.93;52.24;99716.81;4426694;32;19953;-69
2022/04/05 12:40:42;;;;;;;;;;;;;;;15.32;51.23;99718.16;4426513;32;19986;-69
2022/04/05 12:43:23;;;;;;;;;;;;;;;16.60;48.66;99697.59;4425544;32;19950;-69
2022/04/05 12:45:49;;;;;;;;;;;;;;;15.26;51.46;99711.63;4427186;32;19964;-69
2022/04/05 12:48:16;;;;;;;;;;;;;;;15.24;51.42;99722.66;4426602;32;20238;-69
2022/04/05 12:50:44;;;;;;;;;;;;;;;14.99;52.35;99717.69;4423763;32;19954;-69
2022/04/05 12:53:10;;;;;;;;;;;;;;;16.31;49.82;99709.19;4427044;32;20311;-69
2022/04/05 12:55:35;;;;;;;;;;;;;;;15.18;51.86;99709.69;4426486;32;20355;-69
2022/04/05 12:58:01;;;;;;;;;;;;;;;15.49;51.13;99699.31;4427248;32;20358;-69
2022/04/05 13:00:30;;;;;;;;;;;;;;;15.56;50.89;99700.94;4431298;32;19965;-69
2022/04/05 13:02:59;;;;;;;;;;;;;;;15.61;50.88;99700.22;4429248;32;20287;-69
2022/04/05 13:08:12;;;;;;;;;;;;;;;15.58;50.57;99702.00;4425756;32;20031;-69
2022/04/05 13:10:46;;;;;;;;;;;;;;;15.08;51.51;99705.44;4428521;32;19961;-69
2022/04/05 13:13:21;;;;;;;;;;;;;;;15.71;50.36;99702.41;4426243;32;20327;-69
2022/04/05 13:15:47;;;;;;;;;;;;;;;15.03;51.91;99695.56;4427855;32;20415;-69
2022/04/05 13:18:14;;;;;;;;;;;;;;;14.94;51.55;99684.38;4418298;32;20426;-69